createdAt,value
2023-02-08T00:00:45.230Z,69.20
2023-02-08T00:03:12.718Z,69.05
2023-02-08T00:05:42.337Z,69.19
2023-02-08T00:08:09.466Z,69.06
2023-02-08T00:10:36.419Z,68.94
2023-02-08T00:13:03.377Z,68.91
2023-02-08T00:15:30.261Z,68.87
2023-02-08T00:17:57.165Z,68.62
2023-02-08T00:20:24.225Z,68.84
2023-02-08T00:22:52.578Z,68.99
2023-02-08T00:25:21.812Z,69.13
2023-02-08T00:27:48.788Z,69.02
2023-02-08T00:30:16.217Z,68.93
2023-02-08T00:32:43.065Z,68.64
2023-02-08T00:35:10.028Z,68.65
2023-02-08T00:37:36.974Z,68.86
2023-02-08T00:40:06.072Z,69.14
2023-02-08T00:42:33.020Z,69.07
2023-02-08T00:44:59.969Z,69.00
2023-02-08T00:47:26.864Z,69.08
2023-02-08T00:49:53.914Z,68.92
2023-02-08T00:52:21.176Z,69.01
2023-02-08T00:54:48.133Z,69.26
2023-02-08T00:57:15.280Z,69.20
2023-02-08T00:59:42.679Z,69.13
2023-02-08T01:02:09.607Z,69.13
2023-02-08T01:04:36.871Z,69.10
2023-02-08T01:07:05.299Z,69.07
2023-02-08T01:09:32.669Z,69.09
2023-02-08T01:11:59.752Z,69.00
2023-02-08T01:14:27.011Z,69.01
2023-02-08T01:16:53.873Z,69.16
2023-02-08T01:19:20.920Z,69.25
2023-02-08T01:21:49.436Z,69.22
2023-02-08T01:24:16.302Z,69.21
2023-02-08T01:26:44.399Z,69.15
2023-02-08T01:29:11.240Z,69.23
2023-02-08T01:31:41.500Z,69.30
2023-02-08T01:34:09.841Z,69.27
2023-02-08T01:36:37.968Z,69.36
2023-02-08T01:39:06.404Z,69.43
2023-02-08T01:41:36.150Z,69.31
2023-02-08T01:44:11.902Z,69.16
2023-02-08T01:46:43.686Z,69.26
2023-02-08T01:49:10.452Z,69.19
2023-02-08T01:51:47.313Z,69.11
2023-02-08T01:54:17.563Z,69.10
2023-02-08T01:56:47.308Z,69.09
2023-02-08T01:59:23.680Z,69.39
2023-02-08T02:01:54.549Z,69.34
2023-02-08T02:04:22.036Z,69.24
2023-02-08T02:06:53.569Z,69.16
2023-02-08T02:09:26.609Z,68.97
2023-02-08T02:11:54.844Z,69.12
2023-02-08T02:14:22.745Z,68.95
2023-02-08T02:16:49.799Z,68.90
2023-02-08T02:19:40.668Z,68.91
2023-02-08T02:22:22.877Z,69.03
2023-02-08T02:25:04.775Z,69.15
2023-02-08T02:27:59.196Z,69.13
2023-02-08T02:30:45.090Z,69.24
2023-02-08T02:33:24.013Z,69.39
2023-02-08T02:36:03.459Z,69.37
2023-02-08T02:39:25.912Z,69.45
2023-02-08T02:43:02.209Z,69.56
2023-02-08T02:45:34.862Z,69.69
2023-02-08T02:48:11.709Z,69.62
2023-02-08T02:51:14.074Z,69.62
2023-02-08T02:54:00.157Z,69.69
2023-02-08T02:56:37.225Z,69.70
2023-02-08T02:59:10.231Z,69.88
2023-02-08T03:01:38.879Z,69.83
2023-02-08T03:04:19.434Z,69.58
2023-02-08T03:06:52.608Z,69.62
2023-02-08T03:09:28.414Z,69.61
2023-02-08T03:12:29.549Z,69.50
2023-02-08T03:15:13.398Z,69.60
2023-02-08T03:17:54.322Z,69.58
2023-02-08T03:20:53.794Z,69.48
2023-02-08T03:23:49.515Z,69.69
2023-02-08T03:26:23.952Z,69.70
2023-02-08T03:28:58.918Z,69.69
2023-02-08T03:31:38.150Z,69.62
2023-02-08T03:34:14.383Z,69.62
2023-02-08T03:37:04.794Z,69.66
2023-02-08T03:39:35.792Z,69.59
2023-02-08T03:42:09.511Z,69.62
2023-02-08T03:44:44.517Z,69.78
2023-02-08T03:47:22.086Z,69.67
2023-02-08T03:49:52.850Z,69.43
2023-02-08T03:52:20.183Z,69.37
2023-02-08T03:54:54.863Z,69.29
2023-02-08T03:57:26.154Z,69.14
2023-02-08T04:00:07.623Z,69.18
2023-02-08T04:02:46.569Z,69.26
2023-02-08T04:05:13.986Z,69.37
2023-02-08T04:07:40.992Z,69.32
2023-02-08T04:10:08.484Z,69.65
2023-02-08T04:12:36.076Z,69.58
2023-02-08T04:15:03.095Z,69.83
2023-02-08T04:17:30.000Z,69.83
2023-02-08T04:19:56.794Z,69.83
2023-02-08T04:22:23.823Z,69.89
2023-02-08T04:24:51.003Z,70.01
2023-02-08T04:27:17.892Z,69.95
2023-02-08T04:29:44.707Z,69.94
2023-02-08T04:32:11.988Z,70.12
2023-02-08T04:34:39.882Z,70.10
2023-02-08T04:37:08.332Z,70.08
2023-02-08T04:39:35.489Z,69.97
2023-02-08T04:42:03.365Z,70.04
2023-02-08T04:44:33.064Z,70.15
2023-02-08T04:47:00.894Z,70.11
2023-02-08T04:49:27.835Z,70.16
2023-02-08T04:51:54.666Z,70.08
2023-02-08T04:54:22.123Z,69.84
2023-02-08T04:56:48.958Z,69.64
2023-02-08T04:59:16.102Z,69.54
2023-02-08T05:01:42.966Z,69.41
2023-02-08T05:04:10.006Z,69.54
2023-02-08T05:06:36.945Z,69.62
2023-02-08T05:09:03.961Z,69.55
2023-02-08T05:11:30.992Z,69.70
2023-02-08T05:13:57.857Z,69.92
2023-02-08T05:16:24.832Z,69.85
2023-02-08T05:18:51.668Z,69.81
2023-02-08T05:21:18.523Z,70.06
2023-02-08T05:23:46.846Z,70.07
2023-02-08T05:26:13.916Z,70.17
2023-02-08T05:28:40.720Z,70.33
2023-02-08T05:31:18.427Z,70.24
2023-02-08T05:33:45.563Z,70.15
2023-02-08T05:36:12.630Z,70.30
2023-02-08T05:38:39.433Z,70.31
2023-02-08T05:41:06.364Z,70.26
2023-02-08T05:43:33.321Z,70.45
2023-02-08T05:46:00.236Z,70.36
2023-02-08T05:48:27.254Z,69.98
2023-02-08T05:50:54.460Z,69.83
2023-02-08T05:53:21.291Z,69.83
2023-02-08T05:55:48.850Z,70.00
2023-02-08T05:58:16.338Z,70.12
2023-02-08T06:00:44.050Z,70.27
2023-02-08T06:03:11.710Z,70.35
2023-02-08T06:05:40.246Z,70.32
2023-02-08T06:08:07.844Z,70.19
2023-02-08T06:10:35.626Z,70.04
2023-02-08T06:13:03.218Z,69.87
2023-02-08T06:15:30.330Z,69.95
2023-02-08T06:17:57.296Z,70.11
2023-02-08T06:20:24.250Z,70.26
2023-02-08T06:22:51.136Z,70.38
2023-02-08T06:25:18.090Z,70.44
2023-02-08T06:27:45.003Z,70.48
2023-02-08T06:30:13.112Z,70.43
2023-02-08T06:32:40.017Z,70.33
2023-02-08T06:35:07.834Z,70.22
2023-02-08T06:37:34.708Z,70.10
2023-02-08T06:40:02.169Z,69.96
2023-02-08T06:42:29.118Z,69.87
2023-02-08T06:44:56.140Z,69.77
2023-02-08T06:47:24.071Z,69.73
2023-02-08T06:49:51.640Z,69.96
2023-02-08T06:52:19.364Z,69.94
2023-02-08T06:54:46.241Z,69.87
2023-02-08T06:57:13.506Z,70.19
2023-02-08T06:59:42.029Z,70.02
2023-02-08T07:02:18.552Z,69.99
2023-02-08T07:04:45.784Z,70.21
2023-02-08T07:07:13.905Z,70.14
2023-02-08T07:09:40.846Z,70.28
2023-02-08T07:12:08.225Z,70.32
2023-02-08T07:14:39.279Z,70.22
2023-02-08T07:17:06.677Z,70.22
2023-02-08T07:19:33.602Z,70.44
2023-02-08T07:22:07.252Z,70.47
2023-02-08T07:24:43.335Z,70.37
2023-02-08T07:27:12.812Z,70.42
2023-02-08T07:29:40.608Z,70.34
2023-02-08T07:32:08.615Z,70.46
2023-02-08T07:34:37.385Z,70.25
2023-02-08T07:37:05.225Z,70.42
2023-02-08T07:39:32.454Z,70.57
2023-02-08T07:41:59.813Z,70.63
2023-02-08T07:44:28.407Z,70.42
2023-02-08T07:46:55.244Z,70.28
2023-02-08T07:49:22.270Z,70.51
2023-02-08T07:51:49.204Z,70.48
2023-02-08T07:54:16.262Z,70.42
2023-02-08T07:56:43.040Z,70.40
2023-02-08T07:59:10.579Z,70.41
2023-02-08T08:01:37.492Z,70.52
2023-02-08T08:04:04.751Z,70.69
2023-02-08T08:06:31.928Z,70.70
2023-02-08T08:08:58.825Z,70.79
2023-02-08T08:11:25.896Z,70.80
2023-02-08T08:13:53.379Z,70.53
2023-02-08T08:16:20.702Z,70.36
2023-02-08T08:18:47.858Z,70.20
2023-02-08T08:21:16.851Z,70.13
2023-02-08T08:23:44.212Z,70.05
2023-02-08T08:26:14.607Z,70.24
2023-02-08T08:28:42.221Z,70.12
2023-02-08T08:31:18.332Z,70.25
2023-02-08T08:33:45.631Z,70.31
2023-02-08T08:36:13.073Z,70.14
2023-02-08T08:38:41.192Z,70.12
2023-02-08T08:41:10.367Z,70.25
2023-02-08T08:43:37.674Z,70.24
2023-02-08T08:46:09.116Z,70.26
2023-02-08T08:48:37.223Z,70.18
2023-02-08T08:51:04.922Z,70.21
2023-02-08T08:53:31.829Z,70.16
2023-02-08T08:55:58.932Z,70.19
2023-02-08T08:58:25.919Z,70.12
2023-02-08T09:00:54.262Z,70.19
2023-02-08T09:03:21.236Z,70.26
2023-02-08T09:05:48.193Z,70.30
2023-02-08T09:08:15.224Z,70.38
2023-02-08T09:10:42.464Z,70.34
2023-02-08T09:13:10.631Z,70.19
2023-02-08T09:15:41.717Z,70.22
2023-02-08T09:18:08.614Z,70.37
2023-02-08T09:20:38.320Z,70.29
2023-02-08T09:23:05.481Z,70.15
2023-02-08T09:25:33.642Z,70.13
2023-02-08T09:28:00.705Z,70.18
2023-02-08T09:30:27.625Z,70.02
2023-02-08T09:32:54.519Z,70.07
2023-02-08T09:35:21.407Z,70.07
2023-02-08T09:37:48.288Z,70.12
2023-02-08T09:40:25.303Z,70.16
2023-02-08T09:43:01.686Z,70.02
2023-02-08T09:46:03.575Z,69.84
2023-02-08T09:48:39.622Z,69.69
2023-02-08T09:51:29.195Z,69.88
2023-02-08T09:54:07.577Z,69.96
2023-02-08T09:56:40.713Z,69.83
2023-02-08T09:59:16.245Z,69.69
2023-02-08T10:01:43.605Z,69.75
2023-02-08T10:04:40.323Z,69.60
2023-02-08T10:07:11.345Z,69.42
2023-02-08T10:09:38.651Z,69.42
2023-02-08T10:12:41.209Z,69.45
2023-02-08T10:15:23.193Z,69.55
2023-02-08T10:17:59.303Z,69.38
2023-02-08T10:20:38.640Z,69.33
2023-02-08T10:23:22.426Z,69.22
2023-02-08T10:26:08.506Z,69.42
2023-02-08T10:28:49.318Z,69.34
2023-02-08T10:31:35.104Z,69.43
2023-02-08T10:34:16.934Z,69.51
2023-02-08T10:36:44.295Z,69.35
2023-02-08T10:39:22.614Z,69.20
2023-02-08T10:41:51.615Z,69.30
2023-02-08T10:44:40.003Z,69.22
2023-02-08T10:47:47.311Z,69.21
2023-02-08T10:50:21.576Z,69.01
2023-02-08T10:52:49.392Z,68.89
2023-02-08T10:55:19.684Z,68.89
2023-02-08T10:57:49.639Z,68.83
2023-02-08T11:00:21.327Z,68.94
2023-02-08T11:02:52.857Z,68.90
2023-02-08T11:05:23.486Z,68.82
2023-02-08T11:08:09.638Z,68.63
2023-02-08T11:10:39.534Z,68.65
2023-02-08T11:13:20.084Z,68.39
2023-02-08T11:16:02.684Z,68.39
2023-02-08T11:18:34.469Z,68.50
2023-02-08T11:21:08.390Z,68.54
2023-02-08T11:23:40.219Z,68.43
2023-02-08T11:26:23.004Z,68.50
2023-02-08T11:29:06.239Z,68.48
2023-02-08T11:31:35.362Z,68.37
2023-02-08T11:34:11.635Z,68.52
2023-02-08T11:36:48.880Z,68.44
2023-02-08T11:39:26.775Z,68.28
2023-02-08T11:41:58.342Z,68.31
2023-02-08T11:44:32.724Z,68.15
2023-02-08T11:47:02.884Z,68.07
2023-02-08T11:49:54.375Z,68.28
2023-02-08T11:52:25.139Z,68.30
2023-02-08T11:54:53.241Z,68.24
2023-02-08T11:57:28.088Z,68.29
2023-02-08T12:00:18.006Z,68.36
2023-02-08T12:02:46.638Z,68.13
2023-02-08T12:05:18.090Z,68.10
2023-02-08T12:08:00.052Z,68.16
2023-02-08T12:10:27.101Z,68.52
2023-02-08T12:13:09.095Z,68.51
2023-02-08T12:15:57.788Z,67.95
2023-02-08T12:18:44.158Z,67.31
2023-02-08T12:21:17.340Z,67.35
2023-02-08T12:23:50.674Z,68.00
2023-02-08T12:26:25.965Z,68.18
2023-02-08T12:28:55.850Z,68.47
2023-02-08T12:31:25.618Z,69.12
2023-02-08T12:34:04.491Z,69.34
2023-02-08T12:36:50.018Z,69.07
2023-02-08T12:39:58.668Z,68.03
2023-02-08T12:42:34.377Z,67.64
2023-02-08T12:45:28.179Z,67.75
2023-02-08T12:48:05.096Z,67.16
2023-02-08T12:51:01.829Z,66.75
2023-02-08T12:53:38.032Z,66.36
2023-02-08T12:56:13.457Z,66.13
2023-02-08T12:58:48.556Z,65.76
2023-02-08T13:01:21.509Z,65.89
2023-02-08T13:04:04.241Z,65.55
2023-02-08T13:06:39.762Z,64.93
2023-02-08T13:09:49.163Z,64.85
2023-02-08T13:12:24.145Z,64.56
2023-02-08T13:14:57.748Z,64.77
2023-02-08T13:17:29.923Z,64.06
2023-02-08T13:20:20.399Z,63.16
2023-02-08T13:22:48.679Z,62.56
2023-02-08T13:25:23.928Z,62.70
2023-02-08T13:27:51.846Z,63.29
2023-02-08T13:30:20.999Z,64.01
2023-02-08T13:32:50.945Z,63.68
2023-02-08T13:35:20.430Z,63.53
2023-02-08T13:38:22.821Z,63.67
2023-02-08T13:41:15.177Z,63.01
2023-02-08T13:43:55.263Z,62.92
2023-02-08T13:46:24.950Z,63.05
2023-02-08T13:49:02.536Z,63.03
2023-02-08T13:51:35.567Z,63.29
2023-02-08T13:54:02.444Z,63.64
2023-02-08T13:56:52.314Z,63.41
2023-02-08T13:59:34.251Z,63.45
2023-02-08T14:02:14.135Z,63.62
2023-02-08T14:04:50.613Z,63.57
2023-02-08T14:07:24.320Z,63.62
2023-02-08T14:09:54.003Z,63.45
2023-02-08T14:12:28.220Z,63.08
2023-02-08T14:15:16.462Z,63.54
2023-02-08T14:17:49.847Z,63.93
2023-02-08T14:20:22.343Z,63.82
2023-02-08T14:22:52.791Z,63.78
2023-02-08T14:25:43.734Z,63.87
2023-02-08T14:28:26.613Z,64.00
2023-02-08T14:30:59.091Z,64.14
2023-02-08T14:33:34.259Z,64.21
2023-02-08T14:36:07.609Z,64.02
2023-02-08T14:38:51.847Z,63.79
2023-02-08T14:42:09.077Z,63.51
2023-02-08T14:44:38.850Z,63.47
2023-02-08T14:47:27.109Z,63.45
2023-02-08T14:50:16.973Z,63.07
2023-02-08T14:52:48.648Z,63.10
2023-02-08T14:55:20.369Z,63.30
2023-02-08T14:57:48.040Z,63.37
2023-02-08T15:00:23.304Z,63.36
2023-02-08T15:02:50.860Z,63.55
2023-02-08T15:05:34.198Z,63.49
2023-02-08T15:08:02.289Z,63.48
2023-02-08T15:10:30.721Z,63.34
2023-02-08T15:13:02.548Z,63.46
2023-02-08T15:15:39.756Z,63.20
2023-02-08T15:18:18.687Z,63.11
2023-02-08T15:20:56.183Z,62.98
2023-02-08T15:23:24.773Z,62.90
2023-02-08T15:26:23.448Z,62.84
2023-02-08T15:28:50.404Z,63.06
2023-02-08T15:31:30.503Z,63.18
2023-02-08T15:33:59.662Z,63.18
2023-02-08T15:36:34.274Z,63.21
2023-02-08T15:39:10.230Z,62.99
2023-02-08T15:41:38.399Z,62.81
2023-02-08T15:44:23.761Z,62.56
2023-02-08T15:46:55.918Z,62.62
2023-02-08T15:49:29.041Z,62.36
2023-02-08T15:51:57.242Z,62.20
2023-02-08T15:54:25.109Z,62.26
2023-02-08T15:56:59.648Z,62.31
2023-02-08T15:59:33.216Z,62.34
2023-02-08T16:02:28.372Z,62.32
2023-02-08T16:04:56.991Z,62.45
2023-02-08T16:07:48.211Z,62.39
2023-02-08T16:10:52.905Z,62.47
2023-02-08T16:13:28.048Z,62.61
2023-02-08T16:16:08.614Z,62.64
2023-02-08T16:18:57.455Z,62.82
2023-02-08T16:21:43.242Z,63.02
2023-02-08T16:24:13.476Z,63.14
2023-02-08T16:26:56.680Z,63.20
2023-02-08T16:29:31.413Z,63.19
2023-02-08T16:32:20.749Z,63.31
2023-02-08T16:34:48.029Z,63.34
2023-02-08T16:37:26.789Z,63.40
2023-02-08T16:40:00.767Z,63.23
2023-02-08T16:42:30.880Z,63.30
2023-02-08T16:45:20.704Z,63.45
2023-02-08T16:47:56.784Z,63.50
2023-02-08T16:50:26.466Z,63.36
2023-02-08T16:53:02.592Z,63.22
2023-02-08T16:55:31.946Z,63.17
2023-02-08T16:57:59.670Z,63.11
2023-02-08T17:00:35.452Z,63.02
2023-02-08T17:03:02.789Z,63.13
2023-02-08T17:05:37.912Z,63.05
2023-02-08T17:08:08.907Z,62.98
2023-02-08T17:10:36.331Z,63.08
2023-02-08T17:13:19.347Z,63.23
2023-02-08T17:15:49.235Z,63.19
2023-02-08T17:18:17.239Z,63.12
2023-02-08T17:20:45.016Z,63.39
2023-02-08T17:23:13.173Z,63.35
2023-02-08T17:25:40.308Z,63.30
2023-02-08T17:28:12.216Z,63.45
2023-02-08T17:30:41.621Z,63.49
2023-02-08T17:33:10.394Z,63.57
2023-02-08T17:35:39.193Z,63.55
2023-02-08T17:38:06.579Z,63.61
2023-02-08T17:40:38.605Z,63.78
2023-02-08T17:43:06.770Z,63.86
2023-02-08T17:45:42.231Z,63.87
2023-02-08T17:48:10.313Z,63.94
2023-02-08T17:50:37.361Z,64.05
2023-02-08T17:53:04.448Z,64.04
2023-02-08T17:55:31.779Z,64.01
2023-02-08T17:57:58.897Z,63.93
2023-02-08T18:00:26.316Z,63.99
2023-02-08T18:02:55.048Z,63.91
2023-02-08T18:05:27.873Z,63.93
2023-02-08T18:07:56.650Z,64.04
2023-02-08T18:10:25.086Z,64.06
2023-02-08T18:12:52.419Z,63.92
2023-02-08T18:15:21.604Z,63.97
2023-02-08T18:17:50.693Z,64.14
2023-02-08T18:20:18.666Z,64.22
2023-02-08T18:22:46.652Z,64.11
2023-02-08T18:25:16.078Z,64.27
2023-02-08T18:27:43.062Z,64.20
2023-02-08T18:30:11.582Z,64.31
2023-02-08T18:32:38.848Z,64.27
2023-02-08T18:35:07.685Z,64.27
2023-02-08T18:37:36.459Z,64.19
2023-02-08T18:40:04.721Z,64.27
2023-02-08T18:42:33.412Z,64.26
2023-02-08T18:45:01.441Z,64.14
2023-02-08T18:47:28.396Z,64.23
2023-02-08T18:49:56.688Z,64.25
2023-02-08T18:52:26.315Z,64.21
2023-02-08T18:54:53.371Z,64.15
2023-02-08T18:57:21.063Z,64.32
2023-02-08T18:59:48.189Z,64.32
2023-02-08T19:02:21.325Z,64.40
2023-02-08T19:04:48.962Z,64.38
2023-02-08T19:07:16.429Z,64.24
2023-02-08T19:09:44.287Z,64.34
2023-02-08T19:12:15.819Z,64.57
2023-02-08T19:14:43.994Z,64.48
2023-02-08T19:17:13.592Z,64.45
2023-02-08T19:19:42.220Z,64.59
2023-02-08T19:22:10.186Z,64.72
2023-02-08T19:24:37.363Z,64.72
2023-02-08T19:27:04.534Z,64.73
2023-02-08T19:29:34.061Z,64.75
2023-02-08T19:32:01.563Z,64.76
2023-02-08T19:34:29.139Z,64.73
2023-02-08T19:36:56.201Z,64.66
2023-02-08T19:39:28.091Z,64.75
2023-02-08T19:41:55.975Z,64.64
2023-02-08T19:44:23.643Z,64.69
2023-02-08T19:46:54.144Z,64.74
2023-02-08T19:49:22.692Z,64.74
2023-02-08T19:51:50.406Z,64.66
2023-02-08T19:54:19.400Z,64.71
2023-02-08T19:56:47.787Z,64.74
2023-02-08T19:59:21.327Z,64.81
2023-02-08T20:01:48.426Z,64.83
2023-02-08T20:04:16.396Z,64.82
2023-02-08T20:06:45.189Z,64.88
2023-02-08T20:09:13.877Z,64.76
2023-02-08T20:11:54.971Z,64.94
2023-02-08T20:14:24.133Z,64.88
2023-02-08T20:16:51.699Z,64.77
2023-02-08T20:19:19.591Z,64.81
2023-02-08T20:21:46.639Z,64.96
2023-02-08T20:24:14.539Z,64.94
2023-02-08T20:26:44.156Z,64.90
2023-02-08T20:29:11.272Z,64.89
2023-02-08T20:31:41.160Z,65.04
2023-02-08T20:34:12.961Z,65.02
2023-02-08T20:36:49.539Z,65.07
2023-02-08T20:39:20.820Z,65.04
2023-02-08T20:41:48.338Z,65.15
2023-02-08T20:44:18.153Z,65.20
2023-02-08T20:46:46.746Z,65.22
2023-02-08T20:49:15.525Z,65.10
2023-02-08T20:51:44.121Z,65.20
2023-02-08T20:54:11.791Z,65.32
2023-02-08T20:56:40.070Z,65.33
2023-02-08T20:59:10.942Z,65.37
2023-02-08T21:01:38.830Z,65.38
2023-02-08T21:04:05.946Z,65.43
2023-02-08T21:06:35.808Z,65.34
2023-02-08T21:09:06.678Z,65.22
2023-02-08T21:11:34.663Z,65.34
2023-02-08T21:14:02.559Z,65.26
2023-02-08T21:16:32.257Z,65.32
2023-02-08T21:19:02.196Z,65.40
2023-02-08T21:21:30.146Z,65.37
2023-02-08T21:23:58.135Z,65.43
2023-02-08T21:26:26.490Z,65.38
2023-02-08T21:28:55.913Z,65.44
2023-02-08T21:31:23.915Z,65.49
2023-02-08T21:33:52.086Z,65.44
2023-02-08T21:36:23.825Z,65.49
2023-02-08T21:38:51.456Z,65.52
2023-02-08T21:41:30.628Z,65.49
2023-02-08T21:43:59.516Z,65.65
2023-02-08T21:46:28.484Z,65.62
2023-02-08T21:49:15.717Z,65.53
2023-02-08T21:52:03.261Z,65.47
2023-02-08T21:54:43.066Z,65.45
2023-02-08T21:57:10.042Z,65.57
2023-02-08T21:59:37.818Z,65.71
2023-02-08T22:02:25.921Z,65.73
2023-02-08T22:05:14.485Z,65.76
2023-02-08T22:07:44.937Z,65.73
2023-02-08T22:10:13.898Z,65.71
2023-02-08T22:12:42.220Z,65.70
2023-02-08T22:15:14.635Z,65.77
2023-02-08T22:17:41.918Z,65.70
2023-02-08T22:20:10.344Z,65.76
2023-02-08T22:22:37.658Z,65.72
2023-02-08T22:25:05.136Z,65.81
2023-02-08T22:27:32.275Z,65.81
2023-02-08T22:29:59.433Z,65.82
2023-02-08T22:32:26.495Z,65.83
2023-02-08T22:34:53.740Z,65.83
2023-02-08T22:37:20.754Z,65.80
2023-02-08T22:39:47.957Z,65.85
2023-02-08T22:42:15.218Z,65.99
2023-02-08T22:44:44.538Z,65.97
2023-02-08T22:47:13.426Z,65.98
2023-02-08T22:49:40.884Z,66.02
2023-02-08T22:52:08.952Z,65.90
2023-02-08T22:54:36.326Z,65.87
2023-02-08T22:57:04.587Z,65.95
2023-02-08T22:59:32.164Z,65.91
2023-02-08T23:02:00.471Z,65.84
2023-02-08T23:04:28.204Z,65.85
2023-02-08T23:06:55.677Z,65.82
2023-02-08T23:09:23.358Z,65.85
2023-02-08T23:11:51.001Z,65.80
2023-02-08T23:14:18.486Z,65.86
2023-02-08T23:16:45.732Z,65.97
2023-02-08T23:19:18.019Z,66.00
2023-02-08T23:21:45.084Z,65.96
2023-02-08T23:24:12.543Z,65.92
2023-02-08T23:26:39.976Z,65.96
2023-02-08T23:29:07.014Z,65.92
2023-02-08T23:31:34.463Z,66.07
2023-02-08T23:34:01.624Z,66.09
2023-02-08T23:36:28.589Z,66.17
2023-02-08T23:38:55.529Z,66.21
2023-02-08T23:41:23.813Z,66.12
2023-02-08T23:43:54.775Z,66.26
2023-02-08T23:46:24.714Z,66.45
2023-02-08T23:48:52.342Z,66.46
2023-02-08T23:51:20.867Z,66.45
2023-02-08T23:53:48.603Z,66.52
2023-02-08T23:56:20.064Z,66.57
2023-02-08T23:58:49.866Z,66.55
